Time;durP1;ratioP1;P1;durP2;ratioP2;P2;SDS_P1;SDS_P2;PMS_P1;PMS_P2;Temp;Humidity;BMP_temperature;BMP_pressure;BME280_temperature;BME280_humidity;BME280_pressure;Samples;Min_cycle;Max_cycle;Signal;HPM_P1;HPM_P2
2022/09/29 00:01:29;;;;;;;0.43;0.43;;;6.80;99.90;;;;;;6218203;23;20379;-84
2022/09/29 00:03:55;;;;;;;0.57;0.40;;;6.80;99.90;;;;;;6194021;23;20028;-84
2022/09/29 00:06:20;;;;;;;0.30;0.20;;;8.20;99.90;;;;;;6218403;23;20016;-84
2022/09/29 00:08:46;;;;;;;0.50;0.20;;;6.70;99.90;;;;;;6193994;23;20012;-84
2022/09/29 00:11:15;;;;;;;0.37;0.37;;;6.70;99.90;;;;;;6193596;23;20019;-85
2022/09/29 00:13:41;;;;;;;0.30;0.20;;;6.70;99.90;;;;;;6218080;23;20243;-85
2022/09/29 00:16:07;;;;;;;0.37;0.37;;;6.60;99.90;;;;;;6193735;23;20016;-84
2022/09/29 00:18:33;;;;;;;0.32;0.22;;;6.60;99.90;;;;;;6193485;23;20325;-85
2022/09/29 00:21:04;;;;;;;0.40;0.30;;;6.70;99.90;;;;;;6169127;23;20096;-84
2022/09/29 00:23:31;;;;;;;0.25;0.25;;;6.50;99.90;;;;;;6218370;23;20078;-85
2022/09/29 00:26:00;;;;;;;0.30;0.22;;;6.50;99.90;;;;;;6169556;23;20074;-84
2022/09/29 00:28:26;;;;;;;0.52;0.35;;;6.90;99.90;;;;;;6218336;23;20016;-84
2022/09/29 00:30:51;;;;;;;0.57;0.43;;;6.40;99.90;;;;;;6193712;23;20374;-85
2022/09/29 00:33:17;;;;;;;0.60;0.60;;;6.80;99.90;;;;;;6193747;23;20013;-85
2022/09/29 00:35:43;;;;;;;0.27;0.20;;;6.40;99.90;;;;;;6193101;23;20012;-84
2022/09/29 00:38:08;;;;;;;0.40;0.20;;;6.40;99.90;;;;;;6193659;23;20020;-84
2022/09/29 00:40:34;;;;;;;0.23;0.20;;;6.40;99.90;;;;;;6168529;23;20024;-84
2022/09/29 00:43:00;;;;;;;0.20;0.20;;;6.40;99.90;;;;;;6193504;23;20024;-85
2022/09/29 00:45:25;;;;;;;0.27;0.27;;;6.40;99.90;;;;;;6193178;23;20333;-85
2022/09/29 00:48:13;;;;;;;0.73;0.50;;;6.40;99.90;;;;;;6193664;23;20054;-84
2022/09/29 00:50:44;;;;;;;0.40;0.40;;;6.40;99.90;;;;;;6192917;23;20353;-84
2022/09/29 00:53:12;;;;;;;0.17;0.17;;;6.40;99.90;;;;;;6218675;23;20012;-85
2022/09/29 00:55:43;;;;;;;0.20;0.20;;;6.30;99.90;;;;;;6217865;23;20039;-84
2022/09/29 00:58:38;;;;;;;0.57;0.40;;;6.30;99.90;;;;;;6193266;23;20389;-84
2022/09/29 01:01:07;;;;;;;0.50;0.32;;;6.30;99.90;;;;;;6218721;23;20238;-84
2022/09/29 01:03:38;;;;;;;1.17;0.30;;;6.30;99.90;;;;;;6244405;23;20456;-84
2022/09/29 01:06:25;;;;;;;0.10;0.10;;;6.20;99.90;;;;;;6217935;23;20038;-84
2022/09/29 01:09:24;;;;;;;0.40;0.40;;;6.20;99.90;;;;;;6217797;23;20054;-84
2022/09/29 01:11:52;;;;;;;0.20;0.17;;;6.20;99.90;;;;;;6210347;23;20051;-84
2022/09/29 01:14:19;;;;;;;0.25;0.20;;;6.20;99.90;;;;;;6218117;23;20020;-84
2022/09/29 01:16:45;;;;;;;0.77;0.68;;;6.20;99.90;;;;;;6217828;23;20082;-84
2022/09/29 01:19:17;;;;;;;0.20;0.20;;;6.40;99.90;;;;;;6193139;23;20106;-84
2022/09/29 01:21:51;;;;;;;0.20;0.20;;;6.10;99.90;;;;;;6217839;23;20016;-84
2022/09/29 01:25:06;;;;;;;0.20;0.15;;;6.10;99.90;;;;;;6193245;23;20020;-84
2022/09/29 01:27:35;;;;;;;0.55;0.45;;;6.00;99.90;;;;;;6244593;23;20012;-85
2022/09/29 01:30:15;;;;;;;0.73;0.35;;;6.00;99.90;;;;;;6193026;23;20012;-84
2022/09/29 01:33:10;;;;;;;0.68;0.30;;;6.00;99.90;;;;;;6192480;23;20012;-84
2022/09/29 01:36:02;;;;;;;0.38;0.22;;;6.00;99.90;;;;;;6217525;23;20147;-84
2022/09/29 01:38:57;;;;;;;0.22;0.22;;;6.00;99.90;;;;;;6218323;23;20024;-83
2022/09/29 01:41:45;;;;;;;0.65;0.45;;;5.90;99.90;;;;;;6193080;23;20016;-84
2022/09/29 01:44:19;;;;;;;0.60;0.50;;;5.90;99.90;;;;;;6218027;23;20016;-84
2022/09/29 01:46:56;;;;;;;0.45;0.30;;;5.90;99.90;;;;;;6192702;23;20077;-84
2022/09/29 01:49:26;;;;;;;0.30;0.30;;;5.90;99.90;;;;;;6218058;23;20464;-83
2022/09/29 01:52:24;;;;;;;0.28;0.28;;;5.90;99.90;;;;;;6217293;23;20094;-84
2022/09/29 01:55:01;;;;;;;0.35;0.30;;;5.80;99.90;;;;;;6186269;23;20016;-84
2022/09/29 01:57:36;;;;;;;0.30;0.20;;;5.80;99.90;;;;;;6193002;23;20020;-84
2022/09/29 02:00:08;;;;;;;0.80;0.20;;;5.80;99.90;;;;;;6217743;23;20353;-85
2022/09/29 02:02:37;;;;;;;0.75;0.40;;;5.70;99.90;;;;;;6192909;23;20097;-83
2022/09/29 02:05:06;;;;;;;0.10;0.10;;;5.80;99.90;;;;;;6192407;23;20126;-84
2022/09/29 02:07:44;;;;;;;0.20;0.20;;;5.70;99.90;;;;;;6243297;23;20016;-83
2022/09/29 02:10:24;;;;;;;0.30;0.25;;;5.70;99.90;;;;;;6217900;23;20099;-84
2022/09/29 02:12:52;;;;;;;0.85;0.38;;;5.70;99.90;;;;;;6244098;23;20081;-85
2022/09/29 02:15:25;;;;;;;0.38;0.38;;;5.60;99.90;;;;;;6217993;23;20018;-84
2022/09/29 02:17:52;;;;;;;0.10;0.10;;;5.60;99.90;;;;;;6217510;23;20066;-84
2022/09/29 02:20:18;;;;;;;0.68;0.63;;;5.60;99.90;;;;;;6244429;23;20020;-84
2022/09/29 02:22:44;;;;;;;0.20;0.20;;;5.60;99.90;;;;;;6167803;23;20030;-84
2022/09/29 02:25:14;;;;;;;0.23;0.20;;;5.60;99.90;;;;;;6192871;23;20338;-84
2022/09/29 02:27:40;;;;;;;0.30;0.30;;;6.40;99.90;;;;;;6217419;23;20099;-87
2022/09/29 02:30:06;;;;;;;1.75;0.20;;;5.90;99.90;;;;;;6143481;23;20016;-84
2022/09/29 02:32:34;;;;;;;0.52;0.22;;;5.50;99.90;;;;;;6167711;23;20019;-84
2022/09/29 02:35:01;;;;;;;0.40;0.40;;;5.50;99.90;;;;;;6192040;23;20272;-83
2022/09/29 02:37:42;;;;;;;0.20;0.20;;;5.50;99.90;;;;;;6244324;23;20020;-83
2022/09/29 02:40:26;;;;;;;1.08;0.63;;;5.40;99.90;;;;;;6244840;23;20020;-84
2022/09/29 02:43:01;;;;;;;0.35;0.32;;;5.40;99.90;;;;;;6192079;23;20476;-85
2022/09/29 02:45:46;;;;;;;0.10;0.10;;;5.40;99.90;;;;;;6192674;23;20062;-83
2022/09/29 02:48:12;;;;;;;0.63;0.50;;;5.40;99.90;;;;;;6192743;23;20016;-83
2022/09/29 02:50:51;;;;;;;1.60;0.30;;;5.40;99.90;;;;;;6217731;23;20452;-83
2022/09/29 02:53:16;;;;;;;0.20;0.20;;;5.30;99.90;;;;;;6217748;23;20023;-84
2022/09/29 02:56:11;;;;;;;0.93;0.53;;;5.40;99.90;;;;;;6242815;23;20042;-87
2022/09/29 02:58:45;;;;;;;0.20;0.20;;;5.30;99.90;;;;;;6142402;23;20022;-84
2022/09/29 03:01:13;;;;;;;0.30;0.30;;;5.30;99.90;;;;;;6217314;23;20019;-84
2022/09/29 03:03:38;;;;;;;0.55;0.32;;;5.30;99.90;;;;;;6192939;23;20023;-84
2022/09/29 03:06:04;;;;;;;0.40;0.40;;;5.40;99.90;;;;;;6216757;23;20020;-84
2022/09/29 03:08:31;;;;;;;0.70;0.30;;;5.30;99.90;;;;;;6193061;23;20048;-84
2022/09/29 03:10:57;;;;;;;0.30;0.25;;;5.30;99.90;;;;;;6167315;23;20016;-84
2022/09/29 03:13:22;;;;;;;0.90;0.47;;;6.50;99.90;;;;;;6192817;23;20016;-84
2022/09/29 03:15:48;;;;;;;0.37;0.37;;;5.70;99.90;;;;;;6166815;23;20020;-84
2022/09/29 03:18:14;;;;;;;0.97;0.60;;;6.00;99.90;;;;;;6192646;23;20456;-84
2022/09/29 03:20:40;;;;;;;0.33;0.33;;;6.10;99.90;;;;;;6194031;23;20023;-84
2022/09/29 03:23:05;;;;;;;1.03;0.60;;;5.60;99.90;;;;;;6168990;23;20020;-84
2022/09/29 03:25:31;;;;;;;0.30;0.30;;;5.20;99.90;;;;;;6194318;23;20333;-86
2022/09/29 03:27:57;;;;;;;0.83;0.33;;;5.20;99.90;;;;;;6193767;23;20027;-84
2022/09/29 03:30:22;;;;;;;0.30;0.30;;;5.20;99.90;;;;;;6194400;23;20039;-84
2022/09/29 03:32:48;;;;;;;1.97;0.60;;;5.20;99.90;;;;;;6219189;23;20016;-84
2022/09/29 03:35:14;;;;;;;0.30;0.30;;;5.10;99.90;;;;;;6169455;23;20084;-84
2022/09/29 03:37:40;;;;;;;0.80;0.40;;;5.10;99.90;;;;;;6219265;23;20023;-84
2022/09/29 03:40:06;;;;;;;0.80;0.47;;;5.10;99.90;;;;;;6168564;23;20032;-83
2022/09/29 03:42:32;;;;;;;0.52;0.25;;;5.10;99.90;;;;;;6219077;23;20020;-84
2022/09/29 03:44:58;;;;;;;0.50;0.50;;;6.00;99.90;;;;;;6193731;23;20077;-84
2022/09/29 03:47:23;;;;;;;0.63;0.30;;;5.10;99.90;;;;;;6194350;23;20023;-85
2022/09/29 03:49:49;;;;;;;0.10;0.10;;;6.10;99.90;;;;;;6219623;23;20023;-83
2022/09/29 03:52:15;;;;;;;1.03;0.50;;;5.10;99.90;;;;;;6194026;23;20380;-84
2022/09/29 03:54:40;;;;;;;0.60;0.40;;;5.70;99.90;;;;;;6219625;23;20453;-84
2022/09/29 03:57:06;;;;;;;1.13;0.60;;;5.00;99.90;;;;;;6194136;23;20403;-83
2022/09/29 03:59:32;;;;;;;0.30;0.27;;;6.30;99.90;;;;;;6194816;23;20023;-83
2022/09/29 04:01:58;;;;;;;1.20;0.50;;;5.00;99.90;;;;;;6219372;23;20467;-84
2022/09/29 04:04:23;;;;;;;0.60;0.60;;;6.10;99.90;;;;;;6220049;23;20444;-83
2022/09/29 04:06:49;;;;;;;0.90;0.47;;;6.20;99.90;;;;;;6219376;23;20012;-83
2022/09/29 04:09:15;;;;;;;0.57;0.40;;;5.20;99.90;;;;;;6219192;23;20027;-84
2022/09/29 04:11:40;;;;;;;0.60;0.60;;;5.00;99.90;;;;;;6194539;23;20111;-84
2022/09/29 04:14:06;;;;;;;0.97;0.67;;;5.10;99.90;;;;;;6194056;23;20012;-84
2022/09/29 04:16:32;;;;;;;0.90;0.53;;;5.00;99.90;;;;;;6194432;23;20437;-84
2022/09/29 04:18:58;;;;;;;0.50;0.40;;;5.00;99.90;;;;;;6193958;23;20027;-84
2022/09/29 04:21:23;;;;;;;0.50;0.47;;;5.10;99.90;;;;;;6194559;23;20017;-84
2022/09/29 04:23:49;;;;;;;0.50;0.50;;;5.10;99.90;;;;;;6194561;23;20088;-84
2022/09/29 04:26:15;;;;;;;0.50;0.50;;;5.10;99.90;;;;;;6169282;23;20020;-83
2022/09/29 04:28:41;;;;;;;0.13;0.13;;;5.70;99.90;;;;;;6194404;23;20035;-84
2022/09/29 04:31:07;;;;;;;0.40;0.40;;;5.20;99.90;;;;;;6218500;23;20421;-84
2022/09/29 04:33:34;;;;;;;0.40;0.40;;;5.50;99.90;;;;;;6219118;23;20016;-84
2022/09/29 04:35:59;;;;;;;0.55;0.43;;;5.10;99.90;;;;;;6193887;23;20020;-84
2022/09/29 04:38:25;;;;;;;0.77;0.27;;;5.10;99.90;;;;;;6194050;23;20020;-84
2022/09/29 04:40:51;;;;;;;0.60;0.60;;;5.10;99.90;;;;;;6194303;23;20024;-84
2022/09/29 04:43:17;;;;;;;0.53;0.53;;;5.10;99.90;;;;;;6169096;23;20035;-84
2022/09/29 04:45:43;;;;;;;0.57;0.40;;;5.20;99.90;;;;;;6169505;23;20050;-84
2022/09/29 04:48:08;;;;;;;0.60;0.60;;;5.20;99.90;;;;;;6168881;23;20012;-84
2022/09/29 04:50:34;;;;;;;0.50;0.40;;;5.90;99.90;;;;;;6219213;23;20062;-84
2022/09/29 04:53:00;;;;;;;0.60;0.60;;;5.10;99.90;;;;;;6194289;23;20016;-83
2022/09/29 04:55:26;;;;;;;0.40;0.40;;;5.10;99.90;;;;;;6219096;23;20016;-84
2022/09/29 04:57:51;;;;;;;1.33;0.80;;;5.10;99.90;;;;;;6219106;23;20070;-83
2022/09/29 05:00:17;;;;;;;0.53;0.50;;;5.90;99.90;;;;;;6192945;23;20048;-83
2022/09/29 05:02:43;;;;;;;0.30;0.30;;;5.00;99.90;;;;;;6246243;23;20016;-83
2022/09/29 05:05:11;;;;;;;;;;;5.00;99.90;;;;;;6144699;23;20024;-83
2022/09/29 05:07:41;;;;;;;0.93;0.43;;;5.00;99.90;;;;;;6218986;23;19965;-84
2022/09/29 05:10:08;;;;;;;0.40;0.40;;;5.40;99.90;;;;;;6218752;23;20012;-84
2022/09/29 05:12:34;;;;;;;0.90;0.90;;;4.90;99.90;;;;;;6218677;23;20020;-84
2022/09/29 05:15:00;;;;;;;0.33;0.30;;;4.90;99.90;;;;;;6193937;23;20078;-83
2022/09/29 05:17:26;;;;;;;1.13;0.65;;;4.90;99.90;;;;;;6218293;23;20049;-83
2022/09/29 05:19:51;;;;;;;0.67;0.60;;;4.80;99.90;;;;;;6218926;23;20070;-83
2022/09/29 05:22:23;;;;;;;0.57;0.57;;;6.00;99.90;;;;;;6218326;23;20394;-84
2022/09/29 05:24:49;;;;;;;0.98;0.60;;;4.90;99.90;;;;;;6219106;23;20016;-83
2022/09/29 05:27:15;;;;;;;0.65;0.57;;;6.00;99.90;;;;;;6168753;23;20008;-83
2022/09/29 05:29:41;;;;;;;0.30;0.30;;;4.80;99.90;;;;;;6218128;23;20073;-84
2022/09/29 05:32:06;;;;;;;2.47;0.70;;;4.80;99.90;;;;;;6193338;23;20012;-84
2022/09/29 05:34:32;;;;;;;0.20;0.20;;;5.00;99.90;;;;;;6219049;23;20013;-83
2022/09/29 05:36:58;;;;;;;1.50;0.67;;;5.20;99.90;;;;;;6169150;23;20016;-83
2022/09/29 05:39:24;;;;;;;1.20;1.10;;;5.00;99.90;;;;;;6193306;23;20020;-83
2022/09/29 05:41:49;;;;;;;0.27;0.20;;;6.00;99.90;;;;;;6193665;23;20074;-83
2022/09/29 05:44:15;;;;;;;0.77;0.50;;;4.80;99.90;;;;;;6193154;23;20020;-84
2022/09/29 05:46:41;;;;;;;0.97;0.60;;;5.70;99.90;;;;;;6168850;23;20375;-83
2022/09/29 05:49:07;;;;;;;0.40;0.40;;;4.90;99.90;;;;;;6193633;23;20024;-83
2022/09/29 05:51:32;;;;;;;0.63;0.43;;;6.20;99.90;;;;;;6168400;23;20317;-84
2022/09/29 05:53:59;;;;;;;0.60;0.40;;;4.80;99.90;;;;;;6168989;23;20028;-84
2022/09/29 05:56:25;;;;;;;0.35;0.35;;;5.70;99.90;;;;;;6218477;23;20016;-84
2022/09/29 05:58:52;;;;;;;1.00;0.60;;;5.30;99.90;;;;;;6245419;23;20051;-84
2022/09/29 06:01:20;;;;;;;0.43;0.35;;;6.00;99.90;;;;;;6192769;23;20452;-84
2022/09/29 06:03:46;;;;;;;1.65;0.68;;;5.50;99.90;;;;;;6193451;23;20051;-84
2022/09/29 06:06:14;;;;;;;1.20;0.50;;;5.10;99.90;;;;;;6167983;23;20020;-84
2022/09/29 06:08:40;;;;;;;0.65;0.63;;;4.90;99.90;;;;;;6218520;23;20020;-84
2022/09/29 06:11:08;;;;;;;1.65;0.60;;;4.90;99.90;;;;;;6218284;23;20104;-84
2022/09/29 06:13:40;;;;;;;0.90;0.73;;;5.00;99.90;;;;;;6244324;23;20098;-85
2022/09/29 06:16:07;;;;;;;0.50;0.50;;;5.00;99.90;;;;;;6217663;23;20096;-84
2022/09/29 06:18:33;;;;;;;0.40;0.40;;;5.00;99.90;;;;;;6191542;23;20524;-85
2022/09/29 06:21:10;;;;;;;0.60;0.40;;;5.00;99.90;;;;;;6217727;23;20048;-85
2022/09/29 06:23:36;;;;;;;0.68;0.68;;;5.00;99.90;;;;;;6217152;23;20023;-86
2022/09/29 06:26:05;;;;;;;0.20;0.20;;;5.00;99.90;;;;;;6217643;23;20023;-84
2022/09/29 06:28:31;;;;;;;1.08;0.57;;;5.10;99.90;;;;;;6192236;23;20175;-86
2022/09/29 06:31:09;;;;;;;1.07;0.50;;;5.20;99.90;;;;;;6217468;23;20123;-85
2022/09/29 06:33:35;;;;;;;0.68;0.68;;;5.20;99.90;;;;;;6216997;23;20102;-86
2022/09/29 06:39:12;;;;;;;2.40;0.80;;;5.40;99.90;;;;;;6182672;23;20020;-85
2022/09/29 06:41:38;;;;;;;1.13;0.57;;;5.70;99.90;;;;;;6217007;23;20012;-85
2022/09/29 06:44:04;;;;;;;0.47;0.47;;;5.50;99.90;;;;;;6192513;23;20186;-85
2022/09/29 06:46:30;;;;;;;1.07;1.07;;;6.10;99.90;;;;;;6192042;23;20020;-86
2022/09/29 06:48:56;;;;;;;0.63;0.60;;;5.70;99.90;;;;;;6244584;23;20085;-85
2022/09/29 06:51:24;;;;;;;0.85;0.57;;;5.80;99.90;;;;;;6216923;23;20098;-91
2022/09/29 06:53:50;;;;;;;0.52;0.52;;;6.20;99.90;;;;;;6192237;23;20066;-85
2022/09/29 06:56:16;;;;;;;0.60;0.57;;;7.50;99.90;;;;;;6219591;23;20367;-85
2022/09/29 06:58:43;;;;;;;;;;;6.90;99.90;;;;;;6169810;23;20020;-86
2022/09/29 07:01:09;;;;;;;0.52;0.50;;;6.90;99.90;;;;;;6194442;23;20340;-88
2022/09/29 07:03:34;;;;;;;0.93;0.93;;;7.10;99.90;;;;;;6193858;23;20075;-87
2022/09/29 07:06:05;;;;;;;1.37;1.27;;;7.30;99.90;;;;;;6219087;23;20058;-86
2022/09/29 07:08:30;;;;;;;1.65;1.23;;;7.50;99.90;;;;;;6169306;23;20020;-86
2022/09/29 07:10:57;;;;;;;0.60;0.60;;;7.70;99.90;;;;;;6194494;23;20070;-86
2022/09/29 07:13:23;;;;;;;;;;;7.90;99.90;;;;;;6219399;23;20383;-87
2022/09/29 07:15:49;;;;;;;1.63;0.50;;;8.00;99.90;;;;;;6219124;23;19994;-87
2022/09/29 07:18:14;;;;;;;1.50;1.33;;;8.00;99.90;;;;;;6145028;23;20043;-87
2022/09/29 07:20:40;;;;;;;0.63;0.57;;;8.00;99.90;;;;;;6169165;23;20392;-86
2022/09/29 07:23:09;;;;;;;1.40;0.93;;;8.10;99.90;;;;;;6219451;23;20019;-87
2022/09/29 07:25:35;;;;;;;1.98;0.82;;;8.20;99.90;;;;;;6169444;23;20496;-86
2022/09/29 07:28:01;;;;;;;2.30;0.87;;;8.40;99.90;;;;;;6194363;23;20055;-86
2022/09/29 07:30:27;;;;;;;2.00;0.90;;;8.60;99.90;;;;;;6193847;23;20440;-87
2022/09/29 07:32:56;;;;;;;1.95;0.90;;;8.70;99.90;;;;;;6194093;23;20062;-89
2022/09/29 07:35:22;;;;;;;0.82;0.80;;;8.80;99.90;;;;;;6169680;23;20042;-86
2022/09/29 07:37:52;;;;;;;0.77;0.65;;;8.80;99.90;;;;;;6168861;23;20055;-88
2022/09/29 07:40:22;;;;;;;1.25;0.80;;;9.20;99.90;;;;;;6170095;23;20020;-88
2022/09/29 07:42:48;;;;;;;1.48;0.90;;;8.80;99.90;;;;;;6194362;23;20020;-84
2022/09/29 07:45:14;;;;;;;1.90;0.77;;;9.00;99.90;;;;;;6193967;23;20099;-86
2022/09/29 07:47:40;;;;;;;;;;;9.10;99.90;;;;;;6219606;23;20074;-88
2022/09/29 07:50:06;;;;;;;1.17;0.50;;;9.20;99.90;;;;;;6193875;23;20332;-88
2022/09/29 07:52:31;;;;;;;1.80;1.58;;;9.30;99.90;;;;;;6168738;23;20008;-87
2022/09/29 07:54:57;;;;;;;2.07;1.20;;;9.40;99.90;;;;;;6194608;23;20082;-86
2022/09/29 07:57:23;;;;;;;1.57;0.97;;;9.50;99.90;;;;;;6194218;23;20012;-87
2022/09/29 07:59:48;;;;;;;1.80;1.10;;;9.60;99.90;;;;;;6219317;23;20109;-87
2022/09/29 08:02:14;;;;;;;1.90;1.03;;;9.90;99.90;;;;;;6169601;23;20031;-87
2022/09/29 08:04:42;;;;;;;1.27;1.00;;;10.00;99.90;;;;;;6194177;23;20026;-87
2022/09/29 08:07:08;;;;;;;0.88;0.80;;;10.10;99.90;;;;;;6194841;23;20028;-87
2022/09/29 08:09:34;;;;;;;0.82;0.75;;;10.40;99.90;;;;;;6145320;23;20018;-87
2022/09/29 08:12:01;;;;;;;2.42;1.38;;;10.60;99.90;;;;;;6219759;23;20016;-87
2022/09/29 08:14:27;;;;;;;;;;;10.90;99.90;;;;;;6194963;23;20460;-87
2022/09/29 08:16:52;;;;;;;1.83;0.90;;;10.90;99.90;;;;;;6218844;23;19915;-87
2022/09/29 08:19:18;;;;;;;0.87;0.60;;;11.00;99.90;;;;;;6169638;23;20020;-87
2022/09/29 08:21:48;;;;;;;1.23;0.80;;;11.10;99.90;;;;;;6144893;23;20016;-87
2022/09/29 08:24:14;;;;;;;0.90;0.77;;;11.20;99.90;;;;;;6195478;23;20012;-87
2022/09/29 08:26:40;;;;;;;1.52;1.02;;;11.30;99.90;;;;;;6194128;23;20445;-87
2022/09/29 08:29:06;;;;;;;0.98;0.63;;;11.40;99.90;;;;;;6219619;23;20043;-87
2022/09/29 08:31:32;;;;;;;2.55;1.02;;;11.50;99.90;;;;;;6194105;23;20507;-88
2022/09/29 08:33:58;;;;;;;0.98;0.85;;;11.50;99.90;;;;;;6219528;23;20142;-88
2022/09/29 08:36:24;;;;;;;1.92;0.93;;;11.40;99.90;;;;;;6194116;23;20028;-90
2022/09/29 08:38:52;;;;;;;1.73;1.02;;;11.40;99.90;;;;;;6217913;23;20016;-82
2022/09/29 08:41:27;;;;;;;1.65;0.85;;;11.30;99.90;;;;;;6225735;23;20048;-84
2022/09/29 08:43:58;;;;;;;1.27;0.50;;;11.40;99.90;;;;;;6193066;23;20016;-90
2022/09/29 08:46:45;;;;;;;3.05;1.30;;;11.40;99.90;;;;;;6218706;23;20020;-90
2022/09/29 08:49:17;;;;;;;1.90;1.13;;;11.40;99.90;;;;;;6193809;23;20028;-93
2022/09/29 08:51:50;;;;;;;1.92;1.02;;;11.50;99.90;;;;;;6218045;23;20377;-94
2022/09/29 08:54:39;;;;;;;1.08;0.80;;;11.60;99.90;;;;;;6218503;23;20016;-93
2022/09/29 08:57:06;;;;;;;1.38;0.88;;;11.60;99.90;;;;;;6217497;23;20024;-91
2022/09/29 08:59:32;;;;;;;1.60;0.65;;;11.80;99.90;;;;;;6193863;23;20016;-91
2022/09/29 09:02:19;;;;;;;1.90;1.10;;;11.80;99.90;;;;;;6218861;23;20016;-91
2022/09/29 09:04:57;;;;;;;2.05;1.48;;;11.80;99.90;;;;;;6218790;23;20051;-91
2022/09/29 09:07:41;;;;;;;2.05;0.98;;;11.90;99.90;;;;;;6194249;23;20078;-90
2022/09/29 09:10:33;;;;;;;1.30;0.93;;;11.90;99.90;;;;;;6219019;23;20044;-91
2022/09/29 09:13:06;;;;;;;0.40;0.40;;;11.90;99.90;;;;;;6193712;23;20066;-91
2022/09/29 09:15:50;;;;;;;0.80;0.70;;;12.10;99.90;;;;;;6194091;23;20016;-92
2022/09/29 09:18:35;;;;;;;1.67;1.05;;;12.10;99.90;;;;;;6219241;23;20012;-92
2022/09/29 09:21:07;;;;;;;0.57;0.57;;;12.20;99.90;;;;;;6195009;23;20070;-89
2022/09/29 09:23:51;;;;;;;1.52;0.80;;;12.20;99.90;;;;;;6219227;23;20448;-90
2022/09/29 09:26:19;;;;;;;0.38;0.38;;;12.30;99.90;;;;;;6218326;23;20016;-90
2022/09/29 09:28:54;;;;;;;0.75;0.68;;;12.30;99.90;;;;;;6243564;23;20400;-95
2022/09/29 09:31:29;;;;;;;0.40;0.40;;;12.30;99.90;;;;;;6218730;23;20333;-93
2022/09/29 09:34:04;;;;;;;1.15;0.50;;;12.40;99.90;;;;;;6219073;23;20020;-93
2022/09/29 09:36:38;;;;;;;1.00;0.43;;;12.50;99.90;;;;;;6193588;23;20016;-90
2022/09/29 09:39:15;;;;;;;0.80;0.80;;;12.60;99.90;;;;;;6192877;23;20016;-93
2022/09/29 09:41:44;;;;;;;0.50;0.50;;;12.70;99.90;;;;;;6218114;23;20016;-90
2022/09/29 09:44:14;;;;;;;1.08;0.75;;;12.80;99.90;;;;;;6193071;23;20027;-91
2022/09/29 09:46:52;;;;;;;1.10;0.68;;;12.80;99.90;;;;;;6193426;23;20349;-91
2022/09/29 09:49:33;;;;;;;0.50;0.50;;;12.90;99.90;;;;;;6218109;23;20095;-90
2022/09/29 09:52:08;;;;;;;0.60;0.35;;;13.10;99.90;;;;;;6217884;23;20012;-92
2022/09/29 09:54:41;;;;;;;1.35;0.47;;;13.10;99.90;;;;;;6217438;23;20016;-88
2022/09/29 09:57:32;;;;;;;0.77;0.60;;;13.30;99.90;;;;;;6217793;23;20525;-88
2022/09/29 10:00:14;;;;;;;0.55;0.55;;;13.30;99.90;;;;;;6193005;23;20016;-88
2022/09/29 10:02:50;;;;;;;0.52;0.52;;;13.50;99.90;;;;;;6194407;23;20102;-87
2022/09/29 10:05:25;;;;;;;0.63;0.47;;;13.60;99.90;;;;;;6194281;23;20016;-88
2022/09/29 10:07:59;;;;;;;0.45;0.40;;;13.80;99.90;;;;;;6218901;23;20016;-88
2022/09/29 10:10:27;;;;;;;0.30;0.30;;;13.90;99.90;;;;;;6218751;23;20016;-88
2022/09/29 10:13:22;;;;;;;1.15;0.80;;;14.10;99.90;;;;;;6218114;23;20016;-88
2022/09/29 10:16:06;;;;;;;0.63;0.38;;;14.20;99.90;;;;;;6210872;23;20035;-88
2022/09/29 10:18:41;;;;;;;0.30;0.30;;;14.30;99.90;;;;;;6218800;23;20448;-88
2022/09/29 10:21:34;;;;;;;0.73;0.55;;;14.40;99.90;;;;;;6193062;23;20027;-88
2022/09/29 10:24:01;;;;;;;0.52;0.35;;;14.50;99.90;;;;;;6193509;23;20020;-88
2022/09/29 10:26:40;;;;;;;0.20;0.20;;;14.70;99.90;;;;;;6194605;23;20122;-88
2022/09/29 10:29:27;;;;;;;0.85;0.50;;;14.80;99.90;;;;;;6192600;23;20051;-88
2022/09/29 10:32:03;;;;;;;0.90;0.38;;;14.90;99.90;;;;;;6194125;23;20336;-88
2022/09/29 10:34:31;;;;;;;0.45;0.30;;;15.20;99.90;;;;;;6218932;23;20016;-88
2022/09/29 10:37:25;;;;;;;0.68;0.50;;;15.20;99.90;;;;;;6218823;23;20016;-88
2022/09/29 10:40:03;;;;;;;0.73;0.50;;;15.20;99.90;;;;;;6188534;23;20016;-89
2022/09/29 10:42:35;;;;;;;0.75;0.75;;;15.10;99.90;;;;;;6194339;23;20078;-88
2022/09/29 10:45:16;;;;;;;1.35;0.70;;;15.00;99.90;;;;;;6193057;23;20344;-88
2022/09/29 10:47:46;;;;;;;0.68;0.50;;;15.10;99.90;;;;;;6193497;23;20046;-88
2022/09/29 10:50:19;;;;;;;0.13;0.10;;;15.10;99.90;;;;;;6217556;23;20351;-88
2022/09/29 10:52:56;;;;;;;0.70;0.50;;;15.10;99.90;;;;;;6218346;23;20039;-88
2022/09/29 10:55:25;;;;;;;0.90;0.50;;;15.20;99.90;;;;;;6193749;23;20094;-88
2022/09/29 10:57:53;;;;;;;0.88;0.75;;;15.30;99.90;;;;;;6218981;23;20016;-88
2022/09/29 11:00:37;;;;;;;0.85;0.40;;;15.40;99.90;;;;;;6218550;23;20023;-88
2022/09/29 11:03:19;;;;;;;0.82;0.43;;;15.70;99.90;;;;;;6218428;23;20071;-88
2022/09/29 11:06:00;;;;;;;0.30;0.20;;;15.80;99.90;;;;;;6218281;23;20020;-89
2022/09/29 11:08:26;;;;;;;0.00;0.00;;;16.00;99.90;;;;;;6193419;23;20051;-89
2022/09/29 11:11:16;;;;;;;0.20;0.20;;;16.10;99.90;;;;;;6193436;23;20448;-89
2022/09/29 11:13:45;;;;;;;0.17;0.17;;;16.20;99.90;;;;;;6193911;23;20027;-89
2022/09/29 11:16:15;;;;;;;0.15;0.15;;;16.30;99.90;;;;;;6192742;23;20067;-89
2022/09/29 11:18:48;;;;;;;0.30;0.30;;;16.50;99.90;;;;;;6218524;23;20012;-89
2022/09/29 11:21:20;;;;;;;0.52;0.20;;;16.60;99.90;;;;;;6218325;23;20026;-89
2022/09/29 11:24:27;;;;;;;0.25;0.10;;;16.40;99.90;;;;;;6218524;23;20456;-89
2022/09/29 11:27:04;;;;;;;0.30;0.15;;;16.30;99.90;;;;;;6135455;23;20091;-89
2022/09/29 11:29:45;;;;;;;0.30;0.30;;;16.50;99.90;;;;;;6218849;23;20012;-89
2022/09/29 11:32:33;;;;;;;0.10;0.10;;;16.50;99.90;;;;;;6243109;23;20062;-89
2022/09/29 11:35:05;;;;;;;0.10;0.10;;;16.50;99.90;;;;;;6192802;23;20344;-90
2022/09/29 11:37:49;;;;;;;0.25;0.10;;;16.50;99.90;;;;;;6193431;23;20103;-89
2022/09/29 11:40:50;;;;;;;0.32;0.20;;;16.40;99.90;;;;;;6193159;23;20098;-89
2022/09/29 11:43:46;;;;;;;0.10;0.10;;;16.50;99.90;;;;;;6179952;23;20086;-89
2022/09/29 11:46:31;;;;;;;0.15;0.10;;;16.60;99.90;;;;;;6219306;23;20070;-89
2022/09/29 11:49:14;;;;;;;0.00;0.00;;;16.50;99.90;;;;;;6220392;23;20376;-89
2022/09/29 11:52:04;;;;;;;0.20;0.03;;;16.30;99.90;;;;;;6220107;23;20075;-89
2022/09/29 11:55:05;;;;;;;0.20;0.20;;;16.30;99.90;;;;;;6220111;23;20383;-89
2022/09/29 11:58:00;;;;;;;0.10;0.10;;;16.30;99.90;;;;;;6195480;23;20094;-89
2022/09/29 12:00:44;;;;;;;0.00;0.00;;;16.50;99.90;;;;;;6219090;23;20019;-89
2022/09/29 12:03:35;;;;;;;0.00;0.00;;;16.70;99.90;;;;;;6219385;23;20020;-90
2022/09/29 12:06:23;;;;;;;0.00;0.00;;;16.50;99.90;;;;;;6220002;23;20337;-89
2022/09/29 12:09:07;;;;;;;0.13;0.00;;;16.60;99.90;;;;;;6194937;23;20104;-90
2022/09/29 12:11:52;;;;;;;0.03;0.03;;;16.80;99.90;;;;;;6195433;23;20012;-89
2022/09/29 12:14:29;;;;;;;0.00;0.00;;;16.80;99.90;;;;;;6219698;23;20016;-89
2022/09/29 12:17:03;;;;;;;0.00;0.00;;;16.80;99.90;;;;;;6194789;23;20051;-89
2022/09/29 12:19:36;;;;;;;0.00;0.00;;;17.00;99.90;;;;;;6194905;23;20020;-90
2022/09/29 12:22:06;;;;;;;0.00;0.00;;;17.10;99.90;;;;;;6220065;23;20016;-89
2022/09/29 12:24:53;;;;;;;0.10;0.10;;;17.20;99.90;;;;;;6170897;23;20372;-90
2022/09/29 12:27:30;;;;;;;0.00;0.00;;;17.30;99.90;;;;;;6195260;23;20016;-90
2022/09/29 12:30:17;;;;;;;0.10;0.00;;;17.60;99.90;;;;;;6220027;23;20020;-89
2022/09/29 12:32:57;;;;;;;0.10;0.07;;;17.90;99.90;;;;;;6195251;23;20012;-89
2022/09/29 12:35:39;;;;;;;0.30;0.30;;;18.00;99.90;;;;;;6219959;23;20405;-90
2022/09/29 12:38:14;;;;;;;0.00;0.00;;;18.20;99.90;;;;;;6219666;23;20095;-90
2022/09/29 12:41:03;;;;;;;0.57;0.35;;;18.30;99.90;;;;;;6194936;23;20016;-90
2022/09/29 12:44:03;;;;;;;0.00;0.00;;;18.40;99.90;;;;;;6194255;23;20023;-90
2022/09/29 12:46:52;;;;;;;0.00;0.00;;;18.40;99.90;;;;;;6156196;23;20019;-90
2022/09/29 12:49:17;;;;;;;0.00;0.00;;;18.60;99.90;;;;;;6219454;23;20020;-89
2022/09/29 12:51:48;;;;;;;0.00;0.00;;;18.70;99.90;;;;;;6218678;23;20016;-89
2022/09/29 12:54:23;;;;;;;0.10;0.10;;;18.80;99.90;;;;;;6193966;23;20020;-90
2022/09/29 12:57:27;;;;;;;0.00;0.00;;;18.90;99.90;;;;;;6219512;23;20488;-90
2022/09/29 13:00:01;;;;;;;0.00;0.00;;;18.90;99.90;;;;;;6213251;23;20019;-90
2022/09/29 13:02:48;;;;;;;0.00;0.00;;;18.90;99.90;;;;;;6193803;23;20039;-89
2022/09/29 13:05:34;;;;;;;0.10;0.00;;;18.90;99.90;;;;;;6194214;23;20047;-90
2022/09/29 13:08:14;;;;;;;0.00;0.00;;;18.70;99.90;;;;;;6195304;23;20016;-90
2022/09/29 13:11:06;;;;;;;0.00;0.00;;;18.60;99.90;;;;;;6195241;23;20174;-90
2022/09/29 13:13:50;;;;;;;0.10;0.10;;;18.70;99.90;;;;;;6218733;23;20200;-90
2022/09/29 13:16:22;;;;;;;0.30;0.20;;;18.90;99.90;;;;;;6244302;23;20387;-92
2022/09/29 13:19:06;;;;;;;0.55;0.13;;;18.90;99.90;;;;;;6195677;23;20467;-91
2022/09/29 13:22:01;;;;;;;0.10;0.10;;;19.20;99.90;;;;;;6192003;23;20099;-83
2022/09/29 13:24:36;;;;;;;0.13;0.13;;;18.50;99.90;;;;;;6175502;23;20027;-87
2022/09/29 13:27:36;;;;;;;0.00;0.00;;;18.50;99.90;;;;;;6219087;23;20047;-87